الصفحة الرئيسية
METAR-TAF:

METAR-TAF

مطار :

مطار بوانت نوار

Pointe-Noire, كونغو

دائرة عرض: 04-49S, خط طول: 011-54E, ارتفاع: 17 متر

مراقبة الطقس الحالي

تاريخ ووقت الإصدار 49 دقيقة قبل الساعة 18:00UTC
رياح هادئة
درجة الحرارة 26°درجة مئوية
الرطوبة 89%
ضغط 1011 hPa
الرؤية 10 كم أو أكثر
غيوم قليلة على ارتفاع 1300 قدم
غيوم متفرقة على ارتفاع 2300 قدم

METAR: FCPP 171800Z 00000KT 9999 FEW013 SCT023 26/24 Q1011 NOSIG

زمن: 19:49 (18:49 UTC)

توقعات

تاريخ ووقت الإصدار 1ساعة و 49 دقيقة قبل الساعة 17:00UTC
التوقعات صالحة من17 الساعة 18 UTC إلى 18 الساعة 18 UTC
ريح 6 عقدة من الجنوب
الرؤية: 8000 متر
غيوم قليلة على ارتفاع 1300 قدم
غيوم مفككة على ارتفاع 2600 قدم
أصبح
من 18 الساعة 11 UTC إلى 18 الساعة 13 UTC
غيوم متفرقة على ارتفاع 1500 قدم
غيوم قليلة على ارتفاع 3000 قدم, مزنة ركامية.
مؤقت
من 18 الساعة 16 UTC إلى 18 الساعة 18 UTC
عاصفة رعدية

TAF: FCPP 171700Z 1718/1818 18006KT 8000 FEW013 BKN026 BECMG 1811/1813 SCT015 FEW030CB TEMPO 1816/1818 TS

أرصاد الطقس والتوقعات من أكثر من 4000 مطار (تقارير الطقس للمطار METAR والتنبؤ بالطقس بالمطارTAF).

المحطات المتاحة هي النقط الصفراء والحمراء على الخريطة.

حرك المؤشر فوق النقطة لمعرفة اسم المحطة.

ثم انقر لمعرفة أرصاد وتوقعات الطقس.

لتغيير الخارطة: اضغط على الأزرار الخضراء مع رمز الصليب الأسود للتكبير. على الزر الأخضر مع شرطة للتصغير، أو على الأسهم الخضراء للخرائط المجاورة.


METAR-TAF: